sensor_id;sensor_type;location;lat;lon;timestamp;P1;durP1;ratioP1;P2;durP2;ratioP2
60243;SDS011;46106;51.468;5.814;2023-05-29T00:01:12;12.82;;;5.38;;
60243;SDS011;46106;51.468;5.814;2023-05-29T00:03:37;9.70;;;5.30;;
60243;SDS011;46106;51.468;5.814;2023-05-29T00:06:03;10.52;;;5.63;;
60243;SDS011;46106;51.468;5.814;2023-05-29T00:08:28;11.10;;;5.57;;
60243;SDS011;46106;51.468;5.814;2023-05-29T00:10:54;10.95;;;5.05;;
60243;SDS011;46106;51.468;5.814;2023-05-29T00:13:20;13.70;;;5.13;;
60243;SDS011;46106;51.468;5.814;2023-05-29T00:15:45;11.20;;;5.28;;
60243;SDS011;46106;51.468;5.814;2023-05-29T00:18:11;13.05;;;5.40;;
60243;SDS011;46106;51.468;5.814;2023-05-29T00:20:37;10.73;;;4.65;;
60243;SDS011;46106;51.468;5.814;2023-05-29T00:23:03;13.38;;;5.18;;
60243;SDS011;46106;51.468;5.814;2023-05-29T00:25:31;9.18;;;5.25;;
60243;SDS011;46106;51.468;5.814;2023-05-29T00:27:56;11.45;;;5.15;;
60243;SDS011;46106;51.468;5.814;2023-05-29T00:30:22;11.40;;;5.40;;
60243;SDS011;46106;51.468;5.814;2023-05-29T00:32:47;13.57;;;6.00;;
60243;SDS011;46106;51.468;5.814;2023-05-29T00:35:13;9.55;;;4.70;;
60243;SDS011;46106;51.468;5.814;2023-05-29T00:37:39;10.98;;;4.70;;
60243;SDS011;46106;51.468;5.814;2023-05-29T00:40:04;11.00;;;5.03;;
60243;SDS011;46106;51.468;5.814;2023-05-29T00:42:31;11.40;;;4.05;;
60243;SDS011;46106;51.468;5.814;2023-05-29T00:44:57;11.48;;;4.10;;
60243;SDS011;46106;51.468;5.814;2023-05-29T00:47:22;16.23;;;3.97;;
60243;SDS011;46106;51.468;5.814;2023-05-29T00:49:48;13.38;;;4.20;;
60243;SDS011;46106;51.468;5.814;2023-05-29T00:52:16;16.52;;;3.80;;
60243;SDS011;46106;51.468;5.814;2023-05-29T00:54:42;14.60;;;3.42;;
60243;SDS011;46106;51.468;5.814;2023-05-29T00:57:09;16.75;;;3.72;;
60243;SDS011;46106;51.468;5.814;2023-05-29T00:59:37;10.00;;;3.83;;
60243;SDS011;46106;51.468;5.814;2023-05-29T01:02:03;18.55;;;3.65;;
60243;SDS011;46106;51.468;5.814;2023-05-29T01:04:28;12.70;;;3.35;;
60243;SDS011;46106;51.468;5.814;2023-05-29T01:06:54;17.05;;;2.80;;
60243;SDS011;46106;51.468;5.814;2023-05-29T01:09:21;14.82;;;3.22;;
60243;SDS011;46106;51.468;5.814;2023-05-29T01:11:54;12.07;;;2.53;;
60243;SDS011;46106;51.468;5.814;2023-05-29T01:14:32;15.52;;;2.85;;
60243;SDS011;46106;51.468;5.814;2023-05-29T01:17:04;10.98;;;2.08;;
60243;SDS011;46106;51.468;5.814;2023-05-29T01:19:53;13.80;;;3.20;;
60243;SDS011;46106;51.468;5.814;2023-05-29T01:22:35;11.80;;;2.45;;
60243;SDS011;46106;51.468;5.814;2023-05-29T01:25:22;18.88;;;3.22;;
60243;SDS011;46106;51.468;5.814;2023-05-29T01:27:55;15.32;;;2.30;;
60243;SDS011;46106;51.468;5.814;2023-05-29T01:30:20;10.30;;;2.33;;
60243;SDS011;46106;51.468;5.814;2023-05-29T01:32:49;11.82;;;2.70;;
60243;SDS011;46106;51.468;5.814;2023-05-29T01:35:15;14.80;;;2.60;;
60243;SDS011;46106;51.468;5.814;2023-05-29T01:37:41;9.55;;;2.20;;
60243;SDS011;46106;51.468;5.814;2023-05-29T01:40:07;15.20;;;1.90;;
60243;SDS011;46106;51.468;5.814;2023-05-29T01:42:34;10.80;;;2.33;;
60243;SDS011;46106;51.468;5.814;2023-05-29T01:44:59;12.80;;;2.25;;
60243;SDS011;46106;51.468;5.814;2023-05-29T01:47:26;14.65;;;2.58;;
60243;SDS011;46106;51.468;5.814;2023-05-29T01:49:52;17.10;;;2.63;;
60243;SDS011;46106;51.468;5.814;2023-05-29T01:52:19;11.45;;;2.25;;
60243;SDS011;46106;51.468;5.814;2023-05-29T01:54:45;8.55;;;1.90;;
60243;SDS011;46106;51.468;5.814;2023-05-29T01:57:10;16.20;;;2.75;;
60243;SDS011;46106;51.468;5.814;2023-05-29T01:59:37;11.18;;;2.35;;
60243;SDS011;46106;51.468;5.814;2023-05-29T02:02:09;18.55;;;2.13;;
60243;SDS011;46106;51.468;5.814;2023-05-29T02:04:36;11.02;;;2.22;;
60243;SDS011;46106;51.468;5.814;2023-05-29T02:07:03;14.23;;;2.20;;
60243;SDS011;46106;51.468;5.814;2023-05-29T02:09:28;10.02;;;2.00;;
60243;SDS011;46106;51.468;5.814;2023-05-29T02:11:54;16.27;;;2.00;;
60243;SDS011;46106;51.468;5.814;2023-05-29T02:14:19;12.98;;;1.92;;
60243;SDS011;46106;51.468;5.814;2023-05-29T02:16:45;13.02;;;2.20;;
60243;SDS011;46106;51.468;5.814;2023-05-29T02:19:10;10.88;;;1.95;;
60243;SDS011;46106;51.468;5.814;2023-05-29T02:21:39;9.35;;;2.10;;
60243;SDS011;46106;51.468;5.814;2023-05-29T02:24:07;10.63;;;2.20;;
60243;SDS011;46106;51.468;5.814;2023-05-29T02:26:33;9.77;;;2.00;;
60243;SDS011;46106;51.468;5.814;2023-05-29T02:29:01;16.60;;;2.42;;
60243;SDS011;46106;51.468;5.814;2023-05-29T02:31:27;13.95;;;1.90;;
60243;SDS011;46106;51.468;5.814;2023-05-29T02:33:53;9.77;;;2.05;;
60243;SDS011;46106;51.468;5.814;2023-05-29T02:36:18;12.77;;;2.63;;
60243;SDS011;46106;51.468;5.814;2023-05-29T02:38:44;12.60;;;2.10;;
60243;SDS011;46106;51.468;5.814;2023-05-29T02:41:09;13.25;;;2.15;;
60243;SDS011;46106;51.468;5.814;2023-05-29T02:43:35;10.75;;;2.05;;
60243;SDS011;46106;51.468;5.814;2023-05-29T02:46:00;12.50;;;1.98;;
60243;SDS011;46106;51.468;5.814;2023-05-29T02:48:26;17.45;;;2.30;;
60243;SDS011;46106;51.468;5.814;2023-05-29T02:50:52;12.18;;;2.00;;
60243;SDS011;46106;51.468;5.814;2023-05-29T02:53:17;8.73;;;1.60;;
60243;SDS011;46106;51.468;5.814;2023-05-29T02:55:43;10.27;;;1.63;;
60243;SDS011;46106;51.468;5.814;2023-05-29T02:58:09;17.42;;;2.47;;
60243;SDS011;46106;51.468;5.814;2023-05-29T03:00:36;13.73;;;2.15;;
60243;SDS011;46106;51.468;5.814;2023-05-29T03:03:02;12.23;;;1.77;;
60243;SDS011;46106;51.468;5.814;2023-05-29T03:05:28;17.73;;;2.33;;
60243;SDS011;46106;51.468;5.814;2023-05-29T03:07:53;10.95;;;1.83;;
60243;SDS011;46106;51.468;5.814;2023-05-29T03:10:19;16.15;;;2.35;;
60243;SDS011;46106;51.468;5.814;2023-05-29T03:12:45;16.75;;;1.73;;
60243;SDS011;46106;51.468;5.814;2023-05-29T03:15:12;13.25;;;2.08;;
60243;SDS011;46106;51.468;5.814;2023-05-29T03:17:37;13.00;;;1.85;;
60243;SDS011;46106;51.468;5.814;2023-05-29T03:20:03;17.85;;;2.20;;
60243;SDS011;46106;51.468;5.814;2023-05-29T03:22:33;14.02;;;2.38;;
60243;SDS011;46106;51.468;5.814;2023-05-29T03:25:01;17.42;;;2.40;;
60243;SDS011;46106;51.468;5.814;2023-05-29T03:27:27;9.63;;;1.80;;
60243;SDS011;46106;51.468;5.814;2023-05-29T03:29:57;14.32;;;1.73;;
60243;SDS011;46106;51.468;5.814;2023-05-29T03:32:29;15.38;;;2.17;;
60243;SDS011;46106;51.468;5.814;2023-05-29T03:34:54;14.65;;;2.28;;
60243;SDS011;46106;51.468;5.814;2023-05-29T03:37:21;8.80;;;2.00;;
60243;SDS011;46106;51.468;5.814;2023-05-29T03:39:46;6.60;;;1.63;;
60243;SDS011;46106;51.468;5.814;2023-05-29T03:42:12;14.38;;;2.10;;
60243;SDS011;46106;51.468;5.814;2023-05-29T03:44:38;10.52;;;1.63;;
60243;SDS011;46106;51.468;5.814;2023-05-29T03:47:03;15.45;;;2.05;;
60243;SDS011;46106;51.468;5.814;2023-05-29T03:49:29;15.75;;;1.98;;
60243;SDS011;46106;51.468;5.814;2023-05-29T03:51:55;13.25;;;1.88;;
60243;SDS011;46106;51.468;5.814;2023-05-29T03:54:20;10.55;;;2.00;;
60243;SDS011;46106;51.468;5.814;2023-05-29T03:56:45;17.40;;;2.13;;
60243;SDS011;46106;51.468;5.814;2023-05-29T03:59:11;19.77;;;1.90;;
60243;SDS011;46106;51.468;5.814;2023-05-29T04:01:36;13.15;;;2.33;;
60243;SDS011;46106;51.468;5.814;2023-05-29T04:04:02;17.90;;;2.42;;
60243;SDS011;46106;51.468;5.814;2023-05-29T04:06:27;13.75;;;1.80;;
60243;SDS011;46106;51.468;5.814;2023-05-29T04:08:53;16.15;;;2.05;;
60243;SDS011;46106;51.468;5.814;2023-05-29T04:11:18;13.75;;;2.50;;
60243;SDS011;46106;51.468;5.814;2023-05-29T04:13:46;16.48;;;2.67;;
60243;SDS011;46106;51.468;5.814;2023-05-29T04:16:12;17.00;;;2.10;;
60243;SDS011;46106;51.468;5.814;2023-05-29T04:18:38;19.77;;;2.67;;
60243;SDS011;46106;51.468;5.814;2023-05-29T04:21:04;18.13;;;2.00;;
60243;SDS011;46106;51.468;5.814;2023-05-29T04:23:29;12.57;;;1.88;;
60243;SDS011;46106;51.468;5.814;2023-05-29T04:25:54;13.45;;;2.25;;
60243;SDS011;46106;51.468;5.814;2023-05-29T04:28:20;14.32;;;1.75;;
60243;SDS011;46106;51.468;5.814;2023-05-29T04:30:46;12.85;;;1.75;;
60243;SDS011;46106;51.468;5.814;2023-05-29T04:33:12;12.48;;;2.35;;
60243;SDS011;46106;51.468;5.814;2023-05-29T04:35:39;15.65;;;1.80;;
60243;SDS011;46106;51.468;5.814;2023-05-29T04:38:08;26.30;;;2.53;;
60243;SDS011;46106;51.468;5.814;2023-05-29T04:40:34;16.85;;;2.38;;
60243;SDS011;46106;51.468;5.814;2023-05-29T04:43:02;9.93;;;1.65;;
60243;SDS011;46106;51.468;5.814;2023-05-29T04:45:30;8.88;;;1.80;;
60243;SDS011;46106;51.468;5.814;2023-05-29T04:47:55;20.85;;;2.20;;
60243;SDS011;46106;51.468;5.814;2023-05-29T04:50:21;17.98;;;2.28;;
60243;SDS011;46106;51.468;5.814;2023-05-29T04:52:48;14.43;;;2.10;;
60243;SDS011;46106;51.468;5.814;2023-05-29T04:55:13;16.80;;;2.05;;
60243;SDS011;46106;51.468;5.814;2023-05-29T04:57:39;10.50;;;2.03;;
60243;SDS011;46106;51.468;5.814;2023-05-29T05:00:05;14.52;;;2.13;;
60243;SDS011;46106;51.468;5.814;2023-05-29T05:02:33;18.92;;;2.75;;
60243;SDS011;46106;51.468;5.814;2023-05-29T05:04:59;14.45;;;2.45;;
60243;SDS011;46106;51.468;5.814;2023-05-29T05:07:24;18.13;;;2.67;;
60243;SDS011;46106;51.468;5.814;2023-05-29T05:09:50;11.05;;;2.17;;
60243;SDS011;46106;51.468;5.814;2023-05-29T05:12:16;17.98;;;2.40;;
60243;SDS011;46106;51.468;5.814;2023-05-29T05:14:41;14.10;;;1.98;;
60243;SDS011;46106;51.468;5.814;2023-05-29T05:17:06;18.13;;;1.98;;
60243;SDS011;46106;51.468;5.814;2023-05-29T05:19:32;16.33;;;2.03;;
60243;SDS011;46106;51.468;5.814;2023-05-29T05:21:57;13.00;;;1.75;;
60243;SDS011;46106;51.468;5.814;2023-05-29T05:24:23;15.68;;;1.65;;
60243;SDS011;46106;51.468;5.814;2023-05-29T05:26:48;13.93;;;2.53;;
60243;SDS011;46106;51.468;5.814;2023-05-29T05:29:14;12.88;;;1.92;;
60243;SDS011;46106;51.468;5.814;2023-05-29T05:31:40;14.88;;;2.15;;
60243;SDS011;46106;51.468;5.814;2023-05-29T05:34:05;14.07;;;2.28;;
60243;SDS011;46106;51.468;5.814;2023-05-29T05:36:31;19.90;;;2.75;;
60243;SDS011;46106;51.468;5.814;2023-05-29T05:38:57;17.23;;;2.45;;
60243;SDS011;46106;51.468;5.814;2023-05-29T05:41:23;22.30;;;2.45;;
60243;SDS011;46106;51.468;5.814;2023-05-29T05:43:49;15.02;;;2.25;;
60243;SDS011;46106;51.468;5.814;2023-05-29T05:46:14;11.82;;;2.20;;
60243;SDS011;46106;51.468;5.814;2023-05-29T05:48:45;12.77;;;2.15;;
60243;SDS011;46106;51.468;5.814;2023-05-29T05:51:10;16.27;;;2.33;;
60243;SDS011;46106;51.468;5.814;2023-05-29T05:53:37;11.77;;;2.00;;
60243;SDS011;46106;51.468;5.814;2023-05-29T05:56:02;12.65;;;1.88;;
60243;SDS011;46106;51.468;5.814;2023-05-29T05:58:28;17.05;;;2.22;;
60243;SDS011;46106;51.468;5.814;2023-05-29T06:00:53;17.85;;;2.63;;
60243;SDS011;46106;51.468;5.814;2023-05-29T06:03:19;11.32;;;1.83;;
60243;SDS011;46106;51.468;5.814;2023-05-29T06:05:45;17.23;;;4.15;;
60243;SDS011;46106;51.468;5.814;2023-05-29T06:08:11;14.98;;;2.28;;
60243;SDS011;46106;51.468;5.814;2023-05-29T06:10:37;11.48;;;1.77;;
60243;SDS011;46106;51.468;5.814;2023-05-29T06:13:02;15.45;;;2.00;;
60243;SDS011;46106;51.468;5.814;2023-05-29T06:15:28;13.93;;;2.33;;
60243;SDS011;46106;51.468;5.814;2023-05-29T06:17:53;12.68;;;1.70;;
60243;SDS011;46106;51.468;5.814;2023-05-29T06:20:20;20.70;;;2.45;;
60243;SDS011;46106;51.468;5.814;2023-05-29T06:22:46;15.77;;;1.83;;
60243;SDS011;46106;51.468;5.814;2023-05-29T06:25:18;13.52;;;1.88;;
60243;SDS011;46106;51.468;5.814;2023-05-29T06:27:44;12.55;;;2.03;;
60243;SDS011;46106;51.468;5.814;2023-05-29T06:30:10;10.73;;;1.88;;
60243;SDS011;46106;51.468;5.814;2023-05-29T06:32:37;12.98;;;1.92;;
60243;SDS011;46106;51.468;5.814;2023-05-29T06:35:02;13.40;;;1.70;;
60243;SDS011;46106;51.468;5.814;2023-05-29T06:37:28;13.05;;;2.00;;
60243;SDS011;46106;51.468;5.814;2023-05-29T06:39:54;16.58;;;2.35;;
60243;SDS011;46106;51.468;5.814;2023-05-29T06:42:19;21.00;;;2.90;;
60243;SDS011;46106;51.468;5.814;2023-05-29T06:44:45;17.23;;;2.25;;
60243;SDS011;46106;51.468;5.814;2023-05-29T06:47:10;10.98;;;1.73;;
60243;SDS011;46106;51.468;5.814;2023-05-29T06:49:36;9.23;;;1.35;;
60243;SDS011;46106;51.468;5.814;2023-05-29T06:52:01;8.65;;;2.17;;
60243;SDS011;46106;51.468;5.814;2023-05-29T06:54:27;13.02;;;1.65;;
60243;SDS011;46106;51.468;5.814;2023-05-29T06:56:52;14.45;;;1.67;;
60243;SDS011;46106;51.468;5.814;2023-05-29T06:59:18;11.85;;;2.22;;
60243;SDS011;46106;51.468;5.814;2023-05-29T07:01:45;14.07;;;2.00;;
60243;SDS011;46106;51.468;5.814;2023-05-29T07:04:11;9.68;;;1.75;;
60243;SDS011;46106;51.468;5.814;2023-05-29T07:06:36;13.07;;;1.95;;
60243;SDS011;46106;51.468;5.814;2023-05-29T07:09:02;11.07;;;2.47;;
60243;SDS011;46106;51.468;5.814;2023-05-29T07:11:27;13.02;;;1.63;;
60243;SDS011;46106;51.468;5.814;2023-05-29T07:13:53;11.20;;;1.95;;
60243;SDS011;46106;51.468;5.814;2023-05-29T07:16:19;10.05;;;1.60;;
60243;SDS011;46106;51.468;5.814;2023-05-29T07:18:45;11.30;;;2.20;;
60243;SDS011;46106;51.468;5.814;2023-05-29T07:21:11;11.77;;;1.50;;
60243;SDS011;46106;51.468;5.814;2023-05-29T07:23:36;12.57;;;1.92;;
60243;SDS011;46106;51.468;5.814;2023-05-29T07:26:01;12.15;;;1.63;;
60243;SDS011;46106;51.468;5.814;2023-05-29T07:28:27;23.35;;;2.47;;
60243;SDS011;46106;51.468;5.814;2023-05-29T07:30:52;8.27;;;1.35;;
60243;SDS011;46106;51.468;5.814;2023-05-29T07:33:18;8.68;;;1.65;;
60243;SDS011;46106;51.468;5.814;2023-05-29T07:35:43;12.07;;;1.83;;
60243;SDS011;46106;51.468;5.814;2023-05-29T07:38:09;9.68;;;2.08;;
60243;SDS011;46106;51.468;5.814;2023-05-29T07:40:34;11.40;;;1.70;;
60243;SDS011;46106;51.468;5.814;2023-05-29T07:42:59;10.60;;;1.73;;
60243;SDS011;46106;51.468;5.814;2023-05-29T07:45:25;15.45;;;2.22;;
60243;SDS011;46106;51.468;5.814;2023-05-29T07:47:50;12.70;;;2.25;;
60243;SDS011;46106;51.468;5.814;2023-05-29T07:50:16;12.00;;;2.10;;
60243;SDS011;46106;51.468;5.814;2023-05-29T07:52:44;10.00;;;1.63;;
60243;SDS011;46106;51.468;5.814;2023-05-29T07:55:10;8.57;;;1.98;;
60243;SDS011;46106;51.468;5.814;2023-05-29T07:57:35;11.13;;;1.80;;
60243;SDS011;46106;51.468;5.814;2023-05-29T08:00:04;7.93;;;1.48;;
60243;SDS011;46106;51.468;5.814;2023-05-29T08:02:36;12.88;;;1.80;;
60243;SDS011;46106;51.468;5.814;2023-05-29T08:05:05;8.43;;;1.83;;
60243;SDS011;46106;51.468;5.814;2023-05-29T08:07:32;13.75;;;1.85;;
60243;SDS011;46106;51.468;5.814;2023-05-29T08:09:58;6.97;;;1.40;;
60243;SDS011;46106;51.468;5.814;2023-05-29T08:12:23;11.52;;;1.55;;
60243;SDS011;46106;51.468;5.814;2023-05-29T08:14:49;15.25;;;2.28;;
60243;SDS011;46106;51.468;5.814;2023-05-29T08:17:15;13.65;;;2.00;;
60243;SDS011;46106;51.468;5.814;2023-05-29T08:19:41;8.68;;;1.92;;
60243;SDS011;46106;51.468;5.814;2023-05-29T08:22:06;15.95;;;2.05;;
60243;SDS011;46106;51.468;5.814;2023-05-29T08:24:32;11.43;;;2.05;;
60243;SDS011;46106;51.468;5.814;2023-05-29T08:26:58;13.95;;;1.85;;
60243;SDS011;46106;51.468;5.814;2023-05-29T08:29:23;9.10;;;1.80;;
60243;SDS011;46106;51.468;5.814;2023-05-29T08:31:49;8.45;;;1.77;;
60243;SDS011;46106;51.468;5.814;2023-05-29T08:34:14;8.55;;;1.73;;
60243;SDS011;46106;51.468;5.814;2023-05-29T08:36:40;6.45;;;1.10;;
60243;SDS011;46106;51.468;5.814;2023-05-29T08:39:06;7.30;;;1.45;;
60243;SDS011;46106;51.468;5.814;2023-05-29T08:44:08;7.68;;;1.23;;
60243;SDS011;46106;51.468;5.814;2023-05-29T08:46:38;8.52;;;1.88;;
60243;SDS011;46106;51.468;5.814;2023-05-29T08:49:05;8.35;;;1.60;;
60243;SDS011;46106;51.468;5.814;2023-05-29T08:51:34;8.45;;;1.50;;
60243;SDS011;46106;51.468;5.814;2023-05-29T08:54:03;9.10;;;1.63;;
60243;SDS011;46106;51.468;5.814;2023-05-29T08:56:29;14.35;;;2.22;;
60243;SDS011;46106;51.468;5.814;2023-05-29T08:58:55;7.60;;;1.80;;
60243;SDS011;46106;51.468;5.814;2023-05-29T09:01:22;11.88;;;1.83;;
60243;SDS011;46106;51.468;5.814;2023-05-29T09:03:48;12.10;;;2.50;;
60243;SDS011;46106;51.468;5.814;2023-05-29T09:06:14;15.38;;;1.88;;
60243;SDS011;46106;51.468;5.814;2023-05-29T09:08:39;8.77;;;1.77;;
60243;SDS011;46106;51.468;5.814;2023-05-29T09:11:04;12.65;;;1.95;;
60243;SDS011;46106;51.468;5.814;2023-05-29T09:13:30;16.42;;;1.88;;
60243;SDS011;46106;51.468;5.814;2023-05-29T09:15:59;9.27;;;2.13;;
60243;SDS011;46106;51.468;5.814;2023-05-29T09:18:28;12.25;;;2.17;;
60243;SDS011;46106;51.468;5.814;2023-05-29T09:20:55;12.77;;;1.92;;
60243;SDS011;46106;51.468;5.814;2023-05-29T09:23:21;12.70;;;1.85;;
60243;SDS011;46106;51.468;5.814;2023-05-29T09:25:51;10.35;;;1.77;;
60243;SDS011;46106;51.468;5.814;2023-05-29T09:28:19;11.40;;;1.92;;
60243;SDS011;46106;51.468;5.814;2023-05-29T09:30:46;7.03;;;1.27;;
60243;SDS011;46106;51.468;5.814;2023-05-29T09:33:12;8.65;;;2.25;;
60243;SDS011;46106;51.468;5.814;2023-05-29T09:35:46;9.07;;;1.88;;
60243;SDS011;46106;51.468;5.814;2023-05-29T09:38:14;9.18;;;1.77;;
60243;SDS011;46106;51.468;5.814;2023-05-29T09:40:43;10.93;;;1.60;;
60243;SDS011;46106;51.468;5.814;2023-05-29T09:43:13;14.35;;;1.70;;
60243;SDS011;46106;51.468;5.814;2023-05-29T09:45:42;11.13;;;1.55;;
60243;SDS011;46106;51.468;5.814;2023-05-29T09:48:17;9.30;;;1.90;;
60243;SDS011;46106;51.468;5.814;2023-05-29T09:50:47;9.20;;;1.67;;
60243;SDS011;46106;51.468;5.814;2023-05-29T09:53:16;10.02;;;1.50;;
60243;SDS011;46106;51.468;5.814;2023-05-29T09:55:42;12.27;;;2.05;;
60243;SDS011;46106;51.468;5.814;2023-05-29T09:58:08;11.40;;;1.77;;
60243;SDS011;46106;51.468;5.814;2023-05-29T10:00:37;8.70;;;1.45;;
60243;SDS011;46106;51.468;5.814;2023-05-29T10:03:04;9.38;;;1.55;;
60243;SDS011;46106;51.468;5.814;2023-05-29T10:05:29;16.58;;;2.60;;
60243;SDS011;46106;51.468;5.814;2023-05-29T10:07:55;17.35;;;2.20;;
60243;SDS011;46106;51.468;5.814;2023-05-29T10:10:20;12.93;;;1.92;;
60243;SDS011;46106;51.468;5.814;2023-05-29T10:12:49;16.23;;;2.17;;
60243;SDS011;46106;51.468;5.814;2023-05-29T10:15:16;9.23;;;1.83;;
60243;SDS011;46106;51.468;5.814;2023-05-29T10:17:55;6.88;;;1.92;;
60243;SDS011;46106;51.468;5.814;2023-05-29T10:20:27;11.68;;;1.73;;
60243;SDS011;46106;51.468;5.814;2023-05-29T10:22:54;8.32;;;1.70;;
60243;SDS011;46106;51.468;5.814;2023-05-29T10:25:21;6.75;;;1.95;;
60243;SDS011;46106;51.468;5.814;2023-05-29T10:27:49;13.60;;;2.53;;
60243;SDS011;46106;51.468;5.814;2023-05-29T10:35:40;9.27;;;1.70;;
60243;SDS011;46106;51.468;5.814;2023-05-29T10:38:12;5.45;;;1.40;;
60243;SDS011;46106;51.468;5.814;2023-05-29T10:40:41;9.48;;;2.15;;
60243;SDS011;46106;51.468;5.814;2023-05-29T10:45:59;7.47;;;1.48;;
60243;SDS011;46106;51.468;5.814;2023-05-29T10:50:54;6.70;;;1.45;;
60243;SDS011;46106;51.468;5.814;2023-05-29T10:53:24;10.65;;;1.98;;
60243;SDS011;46106;51.468;5.814;2023-05-29T10:55:55;13.90;;;1.63;;
60243;SDS011;46106;51.468;5.814;2023-05-29T10:58:21;10.43;;;1.67;;
60243;SDS011;46106;51.468;5.814;2023-05-29T11:00:49;13.82;;;1.90;;
60243;SDS011;46106;51.468;5.814;2023-05-29T11:03:17;10.45;;;1.85;;
60243;SDS011;46106;51.468;5.814;2023-05-29T11:08:43;12.45;;;1.75;;
60243;SDS011;46106;51.468;5.814;2023-05-29T11:11:13;8.32;;;1.42;;
60243;SDS011;46106;51.468;5.814;2023-05-29T11:13:39;7.38;;;1.73;;
60243;SDS011;46106;51.468;5.814;2023-05-29T11:16:13;9.10;;;1.80;;
60243;SDS011;46106;51.468;5.814;2023-05-29T11:18:53;6.85;;;1.70;;
60243;SDS011;46106;51.468;5.814;2023-05-29T11:24:06;5.47;;;1.40;;
60243;SDS011;46106;51.468;5.814;2023-05-29T11:26:32;8.48;;;1.67;;
60243;SDS011;46106;51.468;5.814;2023-05-29T11:29:05;7.68;;;1.90;;
60243;SDS011;46106;51.468;5.814;2023-05-29T11:31:32;9.25;;;1.80;;
60243;SDS011;46106;51.468;5.814;2023-05-29T11:34:00;8.10;;;1.90;;
60243;SDS011;46106;51.468;5.814;2023-05-29T11:36:29;9.15;;;1.75;;
60243;SDS011;46106;51.468;5.814;2023-05-29T11:38:56;7.93;;;1.40;;
60243;SDS011;46106;51.468;5.814;2023-05-29T11:41:22;8.48;;;1.27;;
60243;SDS011;46106;51.468;5.814;2023-05-29T11:46:22;10.30;;;1.73;;
60243;SDS011;46106;51.468;5.814;2023-05-29T11:48:48;7.00;;;1.55;;
60243;SDS011;46106;51.468;5.814;2023-05-29T11:51:14;6.03;;;1.60;;
60243;SDS011;46106;51.468;5.814;2023-05-29T11:53:43;9.00;;;1.70;;
60243;SDS011;46106;51.468;5.814;2023-05-29T11:56:12;5.95;;;1.80;;
60243;SDS011;46106;51.468;5.814;2023-05-29T11:58:38;5.53;;;1.55;;
60243;SDS011;46106;51.468;5.814;2023-05-29T12:01:05;9.30;;;1.65;;
60243;SDS011;46106;51.468;5.814;2023-05-29T12:03:36;5.82;;;2.00;;
60243;SDS011;46106;51.468;5.814;2023-05-29T12:06:05;6.72;;;1.73;;
60243;SDS011;46106;51.468;5.814;2023-05-29T12:08:32;7.55;;;1.55;;
60243;SDS011;46106;51.468;5.814;2023-05-29T12:10:57;7.13;;;1.85;;
60243;SDS011;46106;51.468;5.814;2023-05-29T12:13:22;15.70;;;1.60;;
60243;SDS011;46106;51.468;5.814;2023-05-29T12:15:49;6.43;;;1.73;;
60243;SDS011;46106;51.468;5.814;2023-05-29T12:18:21;11.95;;;1.58;;
60243;SDS011;46106;51.468;5.814;2023-05-29T12:20:47;7.43;;;1.20;;
60243;SDS011;46106;51.468;5.814;2023-05-29T12:23:12;9.75;;;1.95;;
60243;SDS011;46106;51.468;5.814;2023-05-29T12:25:38;9.88;;;1.60;;
60243;SDS011;46106;51.468;5.814;2023-05-29T12:28:04;8.57;;;1.77;;
60243;SDS011;46106;51.468;5.814;2023-05-29T12:30:30;5.90;;;1.58;;
60243;SDS011;46106;51.468;5.814;2023-05-29T12:32:56;8.48;;;1.58;;
60243;SDS011;46106;51.468;5.814;2023-05-29T12:35:22;6.32;;;1.52;;
60243;SDS011;46106;51.468;5.814;2023-05-29T12:37:56;9.10;;;2.00;;
60243;SDS011;46106;51.468;5.814;2023-05-29T12:40:32;10.52;;;1.88;;
60243;SDS011;46106;51.468;5.814;2023-05-29T12:43:07;6.75;;;1.52;;
60243;SDS011;46106;51.468;5.814;2023-05-29T12:45:36;8.48;;;1.95;;
60243;SDS011;46106;51.468;5.814;2023-05-29T12:48:02;9.85;;;2.15;;
60243;SDS011;46106;51.468;5.814;2023-05-29T12:50:29;7.28;;;1.77;;
60243;SDS011;46106;51.468;5.814;2023-05-29T12:53:04;8.05;;;1.60;;
60243;SDS011;46106;51.468;5.814;2023-05-29T12:55:32;7.60;;;2.05;;
60243;SDS011;46106;51.468;5.814;2023-05-29T12:58:02;8.45;;;1.40;;
60243;SDS011;46106;51.468;5.814;2023-05-29T13:00:28;6.35;;;1.55;;
60243;SDS011;46106;51.468;5.814;2023-05-29T13:02:55;10.13;;;1.75;;
60243;SDS011;46106;51.468;5.814;2023-05-29T13:05:21;8.68;;;1.80;;
60243;SDS011;46106;51.468;5.814;2023-05-29T13:07:51;8.20;;;1.88;;
60243;SDS011;46106;51.468;5.814;2023-05-29T13:10:17;6.10;;;1.63;;
60243;SDS011;46106;51.468;5.814;2023-05-29T13:12:44;7.13;;;1.38;;
60243;SDS011;46106;51.468;5.814;2023-05-29T13:15:11;9.57;;;1.80;;
60243;SDS011;46106;51.468;5.814;2023-05-29T13:17:37;14.80;;;1.73;;
60243;SDS011;46106;51.468;5.814;2023-05-29T13:20:10;9.73;;;1.60;;
60243;SDS011;46106;51.468;5.814;2023-05-29T13:22:39;9.25;;;1.70;;
60243;SDS011;46106;51.468;5.814;2023-05-29T13:25:06;10.43;;;1.85;;
60243;SDS011;46106;51.468;5.814;2023-05-29T13:27:34;6.25;;;1.48;;
60243;SDS011;46106;51.468;5.814;2023-05-29T13:30:05;6.45;;;1.25;;
60243;SDS011;46106;51.468;5.814;2023-05-29T13:32:32;5.07;;;1.35;;
60243;SDS011;46106;51.468;5.814;2023-05-29T13:34:57;11.25;;;2.17;;
60243;SDS011;46106;51.468;5.814;2023-05-29T13:37:23;8.98;;;1.77;;
60243;SDS011;46106;51.468;5.814;2023-05-29T13:39:49;12.32;;;1.90;;
60243;SDS011;46106;51.468;5.814;2023-05-29T13:42:14;9.10;;;1.80;;
60243;SDS011;46106;51.468;5.814;2023-05-29T13:44:40;6.50;;;1.58;;
60243;SDS011;46106;51.468;5.814;2023-05-29T13:47:06;8.57;;;1.67;;
60243;SDS011;46106;51.468;5.814;2023-05-29T13:49:34;8.65;;;1.88;;
60243;SDS011;46106;51.468;5.814;2023-05-29T13:52:01;7.32;;;1.80;;
60243;SDS011;46106;51.468;5.814;2023-05-29T13:54:28;7.63;;;1.35;;
60243;SDS011;46106;51.468;5.814;2023-05-29T13:57:00;11.90;;;1.55;;
60243;SDS011;46106;51.468;5.814;2023-05-29T13:59:32;9.40;;;1.90;;
60243;SDS011;46106;51.468;5.814;2023-05-29T14:01:58;24.08;;;2.53;;
60243;SDS011;46106;51.468;5.814;2023-05-29T14:04:24;21.05;;;1.80;;
60243;SDS011;46106;51.468;5.814;2023-05-29T14:06:51;17.23;;;1.77;;
60243;SDS011;46106;51.468;5.814;2023-05-29T14:09:16;157.65;;;6.28;;
60243;SDS011;46106;51.468;5.814;2023-05-29T14:11:47;26.77;;;2.17;;
60243;SDS011;46106;51.468;5.814;2023-05-29T14:14:13;8.65;;;1.55;;
60243;SDS011;46106;51.468;5.814;2023-05-29T14:16:38;78.57;;;4.50;;
60243;SDS011;46106;51.468;5.814;2023-05-29T14:19:04;43.17;;;3.17;;
60243;SDS011;46106;51.468;5.814;2023-05-29T14:21:29;19.48;;;2.90;;
60243;SDS011;46106;51.468;5.814;2023-05-29T14:23:55;18.95;;;1.85;;
60243;SDS011;46106;51.468;5.814;2023-05-29T14:26:21;17.75;;;2.92;;
60243;SDS011;46106;51.468;5.814;2023-05-29T14:28:46;39.47;;;2.70;;
60243;SDS011;46106;51.468;5.814;2023-05-29T14:31:11;7.40;;;1.50;;
60243;SDS011;46106;51.468;5.814;2023-05-29T14:33:37;12.13;;;1.77;;
60243;SDS011;46106;51.468;5.814;2023-05-29T14:36:02;5.85;;;1.55;;
60243;SDS011;46106;51.468;5.814;2023-05-29T14:38:28;7.97;;;1.60;;
60243;SDS011;46106;51.468;5.814;2023-05-29T14:40:54;10.02;;;1.95;;
60243;SDS011;46106;51.468;5.814;2023-05-29T14:43:20;9.38;;;1.80;;
60243;SDS011;46106;51.468;5.814;2023-05-29T14:45:45;6.30;;;1.60;;
60243;SDS011;46106;51.468;5.814;2023-05-29T14:48:11;10.40;;;1.80;;
60243;SDS011;46106;51.468;5.814;2023-05-29T14:50:36;6.28;;;1.45;;
60243;SDS011;46106;51.468;5.814;2023-05-29T14:53:02;7.20;;;1.50;;
60243;SDS011;46106;51.468;5.814;2023-05-29T14:55:28;8.27;;;1.88;;
60243;SDS011;46106;51.468;5.814;2023-05-29T14:57:55;8.38;;;2.10;;